sensor_id;sensor_type;location;lat;lon;timestamp;P1;durP1;ratioP1;P2;durP2;ratioP2
38851;SDS011;24605;50.092;9.182;2022-12-20T00:00:08;57.35;;;26.05;;
38851;SDS011;24605;50.092;9.182;2022-12-20T00:02:36;54.72;;;24.55;;
38851;SDS011;24605;50.092;9.182;2022-12-20T00:05:03;51.72;;;23.50;;
38851;SDS011;24605;50.092;9.182;2022-12-20T00:07:30;49.38;;;22.45;;
38851;SDS011;24605;50.092;9.182;2022-12-20T00:09:56;55.58;;;24.23;;
38851;SDS011;24605;50.092;9.182;2022-12-20T00:12:24;53.15;;;23.55;;
38851;SDS011;24605;50.092;9.182;2022-12-20T00:14:50;63.63;;;30.05;;
38851;SDS011;24605;50.092;9.182;2022-12-20T00:17:17;57.85;;;26.00;;
38851;SDS011;24605;50.092;9.182;2022-12-20T00:19:43;45.05;;;22.08;;
38851;SDS011;24605;50.092;9.182;2022-12-20T00:22:10;53.85;;;22.52;;
38851;SDS011;24605;50.092;9.182;2022-12-20T00:24:36;46.20;;;21.88;;
38851;SDS011;24605;50.092;9.182;2022-12-20T00:27:03;49.80;;;22.27;;
38851;SDS011;24605;50.092;9.182;2022-12-20T00:29:31;47.10;;;22.25;;
38851;SDS011;24605;50.092;9.182;2022-12-20T00:31:57;45.15;;;20.55;;
38851;SDS011;24605;50.092;9.182;2022-12-20T00:34:24;48.00;;;20.23;;
38851;SDS011;24605;50.092;9.182;2022-12-20T00:36:50;49.50;;;22.25;;
38851;SDS011;24605;50.092;9.182;2022-12-20T00:39:16;52.70;;;25.02;;
38851;SDS011;24605;50.092;9.182;2022-12-20T00:41:43;57.20;;;23.77;;
38851;SDS011;24605;50.092;9.182;2022-12-20T00:44:09;53.13;;;23.50;;
38851;SDS011;24605;50.092;9.182;2022-12-20T00:46:37;49.80;;;22.67;;
38851;SDS011;24605;50.092;9.182;2022-12-20T00:49:04;52.33;;;24.10;;
38851;SDS011;24605;50.092;9.182;2022-12-20T00:51:31;50.92;;;22.60;;
38851;SDS011;24605;50.092;9.182;2022-12-20T00:53:58;51.38;;;23.05;;
38851;SDS011;24605;50.092;9.182;2022-12-20T00:56:24;44.95;;;21.52;;
38851;SDS011;24605;50.092;9.182;2022-12-20T00:58:50;49.17;;;23.02;;
38851;SDS011;24605;50.092;9.182;2022-12-20T01:01:18;46.33;;;21.30;;
38851;SDS011;24605;50.092;9.182;2022-12-20T01:03:48;47.50;;;22.10;;
38851;SDS011;24605;50.092;9.182;2022-12-20T01:06:16;44.83;;;19.65;;
38851;SDS011;24605;50.092;9.182;2022-12-20T01:08:43;45.35;;;19.55;;
38851;SDS011;24605;50.092;9.182;2022-12-20T01:11:10;48.75;;;21.85;;
38851;SDS011;24605;50.092;9.182;2022-12-20T01:13:40;46.70;;;22.70;;
38851;SDS011;24605;50.092;9.182;2022-12-20T01:16:10;51.80;;;21.52;;
38851;SDS011;24605;50.092;9.182;2022-12-20T01:18:39;42.53;;;20.98;;
38851;SDS011;24605;50.092;9.182;2022-12-20T01:21:07;51.90;;;23.40;;
38851;SDS011;24605;50.092;9.182;2022-12-20T01:23:36;50.55;;;22.17;;
38851;SDS011;24605;50.092;9.182;2022-12-20T01:26:04;50.63;;;22.73;;
38851;SDS011;24605;50.092;9.182;2022-12-20T01:28:33;51.15;;;23.85;;
38851;SDS011;24605;50.092;9.182;2022-12-20T01:31:00;57.67;;;23.92;;
38851;SDS011;24605;50.092;9.182;2022-12-20T01:33:27;52.63;;;22.95;;
38851;SDS011;24605;50.092;9.182;2022-12-20T01:35:54;57.05;;;24.95;;
38851;SDS011;24605;50.092;9.182;2022-12-20T01:38:23;51.65;;;22.75;;
38851;SDS011;24605;50.092;9.182;2022-12-20T01:40:51;51.53;;;23.23;;
38851;SDS011;24605;50.092;9.182;2022-12-20T01:43:18;53.15;;;23.77;;
38851;SDS011;24605;50.092;9.182;2022-12-20T01:45:46;55.67;;;23.88;;
38851;SDS011;24605;50.092;9.182;2022-12-20T01:48:13;51.22;;;23.70;;
38851;SDS011;24605;50.092;9.182;2022-12-20T01:50:43;51.80;;;22.40;;
38851;SDS011;24605;50.092;9.182;2022-12-20T01:53:10;52.17;;;22.65;;
38851;SDS011;24605;50.092;9.182;2022-12-20T01:55:38;52.88;;;22.23;;
38851;SDS011;24605;50.092;9.182;2022-12-20T01:58:05;56.05;;;22.33;;
38851;SDS011;24605;50.092;9.182;2022-12-20T02:00:35;55.55;;;23.58;;
38851;SDS011;24605;50.092;9.182;2022-12-20T02:03:03;52.38;;;22.83;;
38851;SDS011;24605;50.092;9.182;2022-12-20T02:05:33;52.85;;;25.45;;
38851;SDS011;24605;50.092;9.182;2022-12-20T02:08:01;54.10;;;24.00;;
38851;SDS011;24605;50.092;9.182;2022-12-20T02:10:31;50.53;;;23.33;;
38851;SDS011;24605;50.092;9.182;2022-12-20T02:13:11;55.85;;;23.45;;
38851;SDS011;24605;50.092;9.182;2022-12-20T02:15:45;51.92;;;22.90;;
38851;SDS011;24605;50.092;9.182;2022-12-20T02:18:19;52.63;;;24.58;;
38851;SDS011;24605;50.092;9.182;2022-12-20T02:20:53;60.03;;;24.42;;
38851;SDS011;24605;50.092;9.182;2022-12-20T02:23:54;49.08;;;23.10;;
38851;SDS011;24605;50.092;9.182;2022-12-20T02:29:54;55.50;;;24.77;;
38851;SDS011;24605;50.092;9.182;2022-12-20T02:32:29;51.45;;;23.13;;
38851;SDS011;24605;50.092;9.182;2022-12-20T02:35:02;53.90;;;24.15;;
38851;SDS011;24605;50.092;9.182;2022-12-20T02:37:31;52.03;;;23.85;;
38851;SDS011;24605;50.092;9.182;2022-12-20T02:39:58;55.95;;;24.67;;
38851;SDS011;24605;50.092;9.182;2022-12-20T02:42:24;51.15;;;24.02;;
38851;SDS011;24605;50.092;9.182;2022-12-20T02:44:58;53.03;;;24.42;;
38851;SDS011;24605;50.092;9.182;2022-12-20T02:47:47;52.17;;;24.05;;
38851;SDS011;24605;50.092;9.182;2022-12-20T02:50:18;48.10;;;23.10;;
38851;SDS011;24605;50.092;9.182;2022-12-20T02:52:47;57.80;;;25.08;;
38851;SDS011;24605;50.092;9.182;2022-12-20T02:55:15;54.20;;;24.52;;
38851;SDS011;24605;50.092;9.182;2022-12-20T02:57:44;50.30;;;23.83;;
38851;SDS011;24605;50.092;9.182;2022-12-20T03:00:18;55.75;;;24.52;;
38851;SDS011;24605;50.092;9.182;2022-12-20T03:02:47;53.92;;;23.77;;
38851;SDS011;24605;50.092;9.182;2022-12-20T03:05:33;56.13;;;23.75;;
38851;SDS011;24605;50.092;9.182;2022-12-20T03:08:03;53.85;;;23.67;;
38851;SDS011;24605;50.092;9.182;2022-12-20T03:10:30;54.08;;;23.98;;
38851;SDS011;24605;50.092;9.182;2022-12-20T03:12:56;52.08;;;23.33;;
38851;SDS011;24605;50.092;9.182;2022-12-20T03:15:24;49.78;;;22.80;;
38851;SDS011;24605;50.092;9.182;2022-12-20T03:17:50;50.38;;;22.30;;
38851;SDS011;24605;50.092;9.182;2022-12-20T03:20:17;51.75;;;23.63;;
38851;SDS011;24605;50.092;9.182;2022-12-20T03:22:43;53.38;;;23.08;;
38851;SDS011;24605;50.092;9.182;2022-12-20T03:25:10;51.28;;;24.13;;
38851;SDS011;24605;50.092;9.182;2022-12-20T03:27:37;48.97;;;22.70;;
38851;SDS011;24605;50.092;9.182;2022-12-20T03:30:04;49.47;;;22.73;;
38851;SDS011;24605;50.092;9.182;2022-12-20T03:32:32;49.30;;;22.33;;
38851;SDS011;24605;50.092;9.182;2022-12-20T03:34:59;51.58;;;23.23;;
38851;SDS011;24605;50.092;9.182;2022-12-20T03:37:25;51.47;;;22.98;;
38851;SDS011;24605;50.092;9.182;2022-12-20T03:39:52;53.85;;;23.17;;
38851;SDS011;24605;50.092;9.182;2022-12-20T03:42:19;47.05;;;22.95;;
38851;SDS011;24605;50.092;9.182;2022-12-20T03:44:45;45.75;;;22.02;;
38851;SDS011;24605;50.092;9.182;2022-12-20T03:47:11;45.63;;;20.92;;
38851;SDS011;24605;50.092;9.182;2022-12-20T03:49:40;45.58;;;21.02;;
38851;SDS011;24605;50.092;9.182;2022-12-20T03:52:06;44.95;;;20.27;;
38851;SDS011;24605;50.092;9.182;2022-12-20T03:54:32;40.30;;;19.35;;
38851;SDS011;24605;50.092;9.182;2022-12-20T03:56:59;44.90;;;20.70;;
38851;SDS011;24605;50.092;9.182;2022-12-20T03:59:25;41.97;;;19.83;;
38851;SDS011;24605;50.092;9.182;2022-12-20T04:01:52;41.78;;;19.63;;
38851;SDS011;24605;50.092;9.182;2022-12-20T04:04:18;45.53;;;21.20;;
38851;SDS011;24605;50.092;9.182;2022-12-20T04:06:46;41.75;;;20.13;;
38851;SDS011;24605;50.092;9.182;2022-12-20T04:09:13;48.65;;;21.15;;
38851;SDS011;24605;50.092;9.182;2022-12-20T04:11:39;48.03;;;21.70;;
38851;SDS011;24605;50.092;9.182;2022-12-20T04:14:05;45.10;;;21.08;;
38851;SDS011;24605;50.092;9.182;2022-12-20T04:16:33;37.58;;;19.08;;
38851;SDS011;24605;50.092;9.182;2022-12-20T04:18:59;41.45;;;19.73;;
38851;SDS011;24605;50.092;9.182;2022-12-20T04:21:26;45.28;;;21.13;;
38851;SDS011;24605;50.092;9.182;2022-12-20T04:23:56;42.63;;;20.52;;
38851;SDS011;24605;50.092;9.182;2022-12-20T04:26:23;42.00;;;19.85;;
38851;SDS011;24605;50.092;9.182;2022-12-20T04:28:49;46.67;;;21.85;;
38851;SDS011;24605;50.092;9.182;2022-12-20T04:31:16;40.88;;;19.75;;
38851;SDS011;24605;50.092;9.182;2022-12-20T04:33:42;44.47;;;21.50;;
38851;SDS011;24605;50.092;9.182;2022-12-20T04:36:09;43.90;;;21.58;;
38851;SDS011;24605;50.092;9.182;2022-12-20T04:38:35;43.42;;;20.17;;
38851;SDS011;24605;50.092;9.182;2022-12-20T04:41:03;38.47;;;18.58;;
38851;SDS011;24605;50.092;9.182;2022-12-20T04:43:30;38.95;;;19.85;;
38851;SDS011;24605;50.092;9.182;2022-12-20T04:45:56;42.17;;;20.50;;
38851;SDS011;24605;50.092;9.182;2022-12-20T04:48:23;38.13;;;19.20;;
38851;SDS011;24605;50.092;9.182;2022-12-20T04:50:52;41.53;;;19.73;;
38851;SDS011;24605;50.092;9.182;2022-12-20T04:53:19;44.00;;;20.38;;
38851;SDS011;24605;50.092;9.182;2022-12-20T04:56:06;39.17;;;18.25;;
38851;SDS011;24605;50.092;9.182;2022-12-20T04:58:32;36.78;;;17.85;;
38851;SDS011;24605;50.092;9.182;2022-12-20T05:00:59;37.25;;;17.98;;
38851;SDS011;24605;50.092;9.182;2022-12-20T05:03:26;40.25;;;19.30;;
38851;SDS011;24605;50.092;9.182;2022-12-20T05:05:52;43.00;;;19.60;;
38851;SDS011;24605;50.092;9.182;2022-12-20T05:08:19;42.40;;;20.23;;
38851;SDS011;24605;50.092;9.182;2022-12-20T05:10:46;38.13;;;19.95;;
38851;SDS011;24605;50.092;9.182;2022-12-20T05:13:14;40.25;;;18.98;;
38851;SDS011;24605;50.092;9.182;2022-12-20T05:15:41;43.50;;;20.58;;
38851;SDS011;24605;50.092;9.182;2022-12-20T05:18:08;42.30;;;20.60;;
38851;SDS011;24605;50.092;9.182;2022-12-20T05:20:35;40.13;;;19.25;;
38851;SDS011;24605;50.092;9.182;2022-12-20T05:23:01;42.05;;;19.42;;
38851;SDS011;24605;50.092;9.182;2022-12-20T05:25:46;32.93;;;15.03;;
38851;SDS011;24605;50.092;9.182;2022-12-20T05:28:32;40.40;;;19.60;;
38851;SDS011;24605;50.092;9.182;2022-12-20T05:30:59;41.67;;;18.55;;
38851;SDS011;24605;50.092;9.182;2022-12-20T05:33:26;41.00;;;18.80;;
38851;SDS011;24605;50.092;9.182;2022-12-20T05:35:53;39.47;;;18.85;;
38851;SDS011;24605;50.092;9.182;2022-12-20T05:38:21;31.73;;;17.25;;
38851;SDS011;24605;50.092;9.182;2022-12-20T05:40:49;37.63;;;17.42;;
38851;SDS011;24605;50.092;9.182;2022-12-20T05:43:16;34.47;;;17.98;;
38851;SDS011;24605;50.092;9.182;2022-12-20T05:45:45;34.80;;;17.15;;
38851;SDS011;24605;50.092;9.182;2022-12-20T05:48:13;30.85;;;15.55;;
38851;SDS011;24605;50.092;9.182;2022-12-20T05:50:40;39.90;;;18.77;;
38851;SDS011;24605;50.092;9.182;2022-12-20T05:53:09;34.88;;;16.60;;
38851;SDS011;24605;50.092;9.182;2022-12-20T05:55:36;37.30;;;18.05;;
38851;SDS011;24605;50.092;9.182;2022-12-20T05:58:04;33.08;;;16.83;;
38851;SDS011;24605;50.092;9.182;2022-12-20T06:00:31;36.90;;;18.25;;
38851;SDS011;24605;50.092;9.182;2022-12-20T06:02:59;39.20;;;18.40;;
38851;SDS011;24605;50.092;9.182;2022-12-20T06:05:25;38.17;;;18.55;;
38851;SDS011;24605;50.092;9.182;2022-12-20T06:07:52;37.15;;;18.48;;
38851;SDS011;24605;50.092;9.182;2022-12-20T06:10:18;40.10;;;19.67;;
38851;SDS011;24605;50.092;9.182;2022-12-20T06:12:45;42.92;;;20.20;;
38851;SDS011;24605;50.092;9.182;2022-12-20T06:15:11;46.95;;;20.40;;
38851;SDS011;24605;50.092;9.182;2022-12-20T06:17:39;36.65;;;19.60;;
38851;SDS011;24605;50.092;9.182;2022-12-20T06:20:08;39.35;;;18.95;;
38851;SDS011;24605;50.092;9.182;2022-12-20T06:22:36;35.80;;;17.75;;
38851;SDS011;24605;50.092;9.182;2022-12-20T06:25:03;37.58;;;18.23;;
38851;SDS011;24605;50.092;9.182;2022-12-20T06:27:30;36.22;;;17.25;;
38851;SDS011;24605;50.092;9.182;2022-12-20T06:29:56;37.25;;;18.52;;
38851;SDS011;24605;50.092;9.182;2022-12-20T06:32:23;37.42;;;17.90;;
38851;SDS011;24605;50.092;9.182;2022-12-20T06:34:49;37.15;;;18.77;;
38851;SDS011;24605;50.092;9.182;2022-12-20T06:37:17;37.33;;;19.58;;
38851;SDS011;24605;50.092;9.182;2022-12-20T06:39:44;39.58;;;18.63;;
38851;SDS011;24605;50.092;9.182;2022-12-20T06:42:10;35.63;;;18.13;;
38851;SDS011;24605;50.092;9.182;2022-12-20T06:44:37;38.65;;;18.70;;
38851;SDS011;24605;50.092;9.182;2022-12-20T06:47:03;41.20;;;19.67;;
38851;SDS011;24605;50.092;9.182;2022-12-20T06:49:30;39.25;;;22.23;;
38851;SDS011;24605;50.092;9.182;2022-12-20T06:51:56;40.72;;;20.13;;
38851;SDS011;24605;50.092;9.182;2022-12-20T06:54:24;41.15;;;20.25;;
38851;SDS011;24605;50.092;9.182;2022-12-20T06:56:51;62.42;;;29.05;;
38851;SDS011;24605;50.092;9.182;2022-12-20T06:59:17;46.42;;;22.13;;
38851;SDS011;24605;50.092;9.182;2022-12-20T07:01:44;60.38;;;30.95;;
38851;SDS011;24605;50.092;9.182;2022-12-20T07:04:10;43.03;;;22.60;;
38851;SDS011;24605;50.092;9.182;2022-12-20T07:06:37;43.50;;;22.70;;
38851;SDS011;24605;50.092;9.182;2022-12-20T07:09:03;60.40;;;33.15;;
38851;SDS011;24605;50.092;9.182;2022-12-20T07:11:32;46.97;;;26.23;;
38851;SDS011;24605;50.092;9.182;2022-12-20T07:13:58;46.97;;;26.15;;
38851;SDS011;24605;50.092;9.182;2022-12-20T07:16:24;36.53;;;18.20;;
38851;SDS011;24605;50.092;9.182;2022-12-20T07:18:51;32.42;;;16.83;;
38851;SDS011;24605;50.092;9.182;2022-12-20T07:21:19;34.85;;;17.20;;
38851;SDS011;24605;50.092;9.182;2022-12-20T07:23:46;30.48;;;16.58;;
38851;SDS011;24605;50.092;9.182;2022-12-20T07:26:13;34.88;;;17.30;;
38851;SDS011;24605;50.092;9.182;2022-12-20T07:28:42;39.70;;;18.65;;
38851;SDS011;24605;50.092;9.182;2022-12-20T07:31:09;45.33;;;22.23;;
38851;SDS011;24605;50.092;9.182;2022-12-20T07:33:35;33.60;;;17.35;;
38851;SDS011;24605;50.092;9.182;2022-12-20T07:36:03;39.97;;;18.10;;
38851;SDS011;24605;50.092;9.182;2022-12-20T07:38:31;32.90;;;16.85;;
38851;SDS011;24605;50.092;9.182;2022-12-20T07:40:59;29.48;;;15.73;;
38851;SDS011;24605;50.092;9.182;2022-12-20T07:43:26;34.10;;;15.52;;
38851;SDS011;24605;50.092;9.182;2022-12-20T07:45:54;32.90;;;16.33;;
38851;SDS011;24605;50.092;9.182;2022-12-20T07:48:22;28.77;;;15.43;;
38851;SDS011;24605;50.092;9.182;2022-12-20T07:50:49;32.97;;;15.95;;
38851;SDS011;24605;50.092;9.182;2022-12-20T07:53:17;32.63;;;15.95;;
38851;SDS011;24605;50.092;9.182;2022-12-20T07:55:44;33.22;;;17.23;;
38851;SDS011;24605;50.092;9.182;2022-12-20T07:58:11;31.60;;;15.27;;
38851;SDS011;24605;50.092;9.182;2022-12-20T08:00:39;30.15;;;15.20;;
38851;SDS011;24605;50.092;9.182;2022-12-20T08:03:08;31.58;;;15.90;;
38851;SDS011;24605;50.092;9.182;2022-12-20T08:05:38;29.95;;;15.70;;
38851;SDS011;24605;50.092;9.182;2022-12-20T08:08:07;30.58;;;15.68;;
38851;SDS011;24605;50.092;9.182;2022-12-20T08:10:35;28.40;;;14.57;;
38851;SDS011;24605;50.092;9.182;2022-12-20T08:13:02;30.85;;;14.85;;
38851;SDS011;24605;50.092;9.182;2022-12-20T08:15:30;30.75;;;17.00;;
38851;SDS011;24605;50.092;9.182;2022-12-20T08:17:56;30.95;;;14.75;;
38851;SDS011;24605;50.092;9.182;2022-12-20T08:20:24;35.67;;;16.95;;
38851;SDS011;24605;50.092;9.182;2022-12-20T08:22:50;29.52;;;15.95;;
38851;SDS011;24605;50.092;9.182;2022-12-20T08:25:17;32.03;;;16.15;;
38851;SDS011;24605;50.092;9.182;2022-12-20T08:27:45;28.45;;;15.98;;
38851;SDS011;24605;50.092;9.182;2022-12-20T08:30:12;29.65;;;15.55;;
38851;SDS011;24605;50.092;9.182;2022-12-20T08:32:39;33.28;;;16.35;;
38851;SDS011;24605;50.092;9.182;2022-12-20T08:35:06;31.23;;;17.73;;
38851;SDS011;24605;50.092;9.182;2022-12-20T08:37:34;37.20;;;18.90;;
38851;SDS011;24605;50.092;9.182;2022-12-20T08:40:00;30.27;;;16.63;;
38851;SDS011;24605;50.092;9.182;2022-12-20T08:42:27;29.17;;;15.98;;
38851;SDS011;24605;50.092;9.182;2022-12-20T08:44:53;30.65;;;16.10;;
38851;SDS011;24605;50.092;9.182;2022-12-20T08:47:20;41.22;;;22.00;;
38851;SDS011;24605;50.092;9.182;2022-12-20T08:49:46;34.20;;;17.98;;
38851;SDS011;24605;50.092;9.182;2022-12-20T08:52:13;32.85;;;16.42;;
38851;SDS011;24605;50.092;9.182;2022-12-20T08:54:40;45.97;;;21.25;;
38851;SDS011;24605;50.092;9.182;2022-12-20T08:57:07;36.45;;;18.30;;
38851;SDS011;24605;50.092;9.182;2022-12-20T08:59:34;31.65;;;16.10;;
38851;SDS011;24605;50.092;9.182;2022-12-20T09:02:00;37.17;;;17.65;;
38851;SDS011;24605;50.092;9.182;2022-12-20T09:04:26;44.42;;;22.20;;
38851;SDS011;24605;50.092;9.182;2022-12-20T09:06:53;32.60;;;16.45;;
38851;SDS011;24605;50.092;9.182;2022-12-20T09:09:19;28.15;;;15.40;;
38851;SDS011;24605;50.092;9.182;2022-12-20T09:11:47;28.35;;;15.63;;
38851;SDS011;24605;50.092;9.182;2022-12-20T09:14:14;24.77;;;13.73;;
38851;SDS011;24605;50.092;9.182;2022-12-20T09:16:40;27.30;;;14.98;;
38851;SDS011;24605;50.092;9.182;2022-12-20T09:19:06;31.08;;;15.65;;
38851;SDS011;24605;50.092;9.182;2022-12-20T09:21:37;28.27;;;14.90;;
38851;SDS011;24605;50.092;9.182;2022-12-20T09:24:03;42.03;;;19.63;;
38851;SDS011;24605;50.092;9.182;2022-12-20T09:26:30;26.80;;;15.13;;
38851;SDS011;24605;50.092;9.182;2022-12-20T09:29:00;38.97;;;21.70;;
38851;SDS011;24605;50.092;9.182;2022-12-20T09:31:27;27.05;;;14.20;;
38851;SDS011;24605;50.092;9.182;2022-12-20T09:33:54;26.77;;;14.93;;
38851;SDS011;24605;50.092;9.182;2022-12-20T09:36:22;29.02;;;17.40;;
38851;SDS011;24605;50.092;9.182;2022-12-20T09:38:50;32.08;;;19.95;;
38851;SDS011;24605;50.092;9.182;2022-12-20T09:41:19;30.67;;;16.13;;
38851;SDS011;24605;50.092;9.182;2022-12-20T09:43:51;28.67;;;15.32;;
38851;SDS011;24605;50.092;9.182;2022-12-20T09:46:19;31.27;;;15.63;;
38851;SDS011;24605;50.092;9.182;2022-12-20T09:48:45;27.60;;;14.93;;
38851;SDS011;24605;50.092;9.182;2022-12-20T09:51:16;27.70;;;14.75;;
38851;SDS011;24605;50.092;9.182;2022-12-20T09:53:57;27.45;;;14.20;;
38851;SDS011;24605;50.092;9.182;2022-12-20T09:56:34;27.25;;;15.73;;
38851;SDS011;24605;50.092;9.182;2022-12-20T09:59:03;28.50;;;14.90;;
38851;SDS011;24605;50.092;9.182;2022-12-20T10:01:33;29.35;;;14.95;;
38851;SDS011;24605;50.092;9.182;2022-12-20T10:04:01;29.05;;;14.82;;
38851;SDS011;24605;50.092;9.182;2022-12-20T10:06:32;24.92;;;13.95;;
38851;SDS011;24605;50.092;9.182;2022-12-20T10:09:09;27.10;;;15.10;;
38851;SDS011;24605;50.092;9.182;2022-12-20T10:11:44;28.55;;;14.82;;
38851;SDS011;24605;50.092;9.182;2022-12-20T10:14:32;28.27;;;14.40;;
38851;SDS011;24605;50.092;9.182;2022-12-20T10:17:13;28.88;;;16.05;;
38851;SDS011;24605;50.092;9.182;2022-12-20T10:19:55;25.17;;;14.93;;
38851;SDS011;24605;50.092;9.182;2022-12-20T10:22:32;24.67;;;14.18;;
38851;SDS011;24605;50.092;9.182;2022-12-20T10:25:12;26.17;;;14.88;;
38851;SDS011;24605;50.092;9.182;2022-12-20T10:27:41;25.88;;;14.18;;
38851;SDS011;24605;50.092;9.182;2022-12-20T10:30:10;26.42;;;14.80;;
38851;SDS011;24605;50.092;9.182;2022-12-20T10:32:41;27.77;;;16.80;;
38851;SDS011;24605;50.092;9.182;2022-12-20T10:35:20;29.67;;;16.02;;
38851;SDS011;24605;50.092;9.182;2022-12-20T10:37:57;25.90;;;14.25;;
38851;SDS011;24605;50.092;9.182;2022-12-20T10:40:26;24.75;;;14.20;;
38851;SDS011;24605;50.092;9.182;2022-12-20T10:42:54;26.38;;;14.27;;
38851;SDS011;24605;50.092;9.182;2022-12-20T10:45:30;25.45;;;14.27;;
38851;SDS011;24605;50.092;9.182;2022-12-20T10:48:02;26.02;;;14.70;;
38851;SDS011;24605;50.092;9.182;2022-12-20T10:50:30;29.42;;;15.13;;
38851;SDS011;24605;50.092;9.182;2022-12-20T10:53:18;27.10;;;15.32;;
38851;SDS011;24605;50.092;9.182;2022-12-20T10:55:46;29.33;;;14.65;;
38851;SDS011;24605;50.092;9.182;2022-12-20T10:58:14;24.20;;;13.77;;
38851;SDS011;24605;50.092;9.182;2022-12-20T11:00:42;25.92;;;14.48;;
38851;SDS011;24605;50.092;9.182;2022-12-20T11:03:13;25.00;;;14.23;;
38851;SDS011;24605;50.092;9.182;2022-12-20T11:05:51;26.40;;;14.40;;
38851;SDS011;24605;50.092;9.182;2022-12-20T11:08:20;27.83;;;15.10;;
38851;SDS011;24605;50.092;9.182;2022-12-20T11:10:48;26.52;;;14.90;;
38851;SDS011;24605;50.092;9.182;2022-12-20T11:13:19;25.17;;;13.32;;
38851;SDS011;24605;50.092;9.182;2022-12-20T11:15:48;26.40;;;14.98;;
38851;SDS011;24605;50.092;9.182;2022-12-20T11:18:18;25.38;;;13.63;;
38851;SDS011;24605;50.092;9.182;2022-12-20T11:20:53;24.90;;;13.95;;
38851;SDS011;24605;50.092;9.182;2022-12-20T11:23:29;27.70;;;15.85;;
38851;SDS011;24605;50.092;9.182;2022-12-20T11:26:07;30.55;;;16.05;;
38851;SDS011;24605;50.092;9.182;2022-12-20T11:28:49;24.27;;;14.07;;
38851;SDS011;24605;50.092;9.182;2022-12-20T11:31:27;26.17;;;14.82;;
38851;SDS011;24605;50.092;9.182;2022-12-20T11:34:11;25.20;;;14.10;;
38851;SDS011;24605;50.092;9.182;2022-12-20T11:36:55;26.10;;;14.38;;
38851;SDS011;24605;50.092;9.182;2022-12-20T11:39:31;25.42;;;14.00;;
38851;SDS011;24605;50.092;9.182;2022-12-20T11:42:04;25.53;;;14.40;;
38851;SDS011;24605;50.092;9.182;2022-12-20T11:44:43;22.83;;;13.65;;
38851;SDS011;24605;50.092;9.182;2022-12-20T11:47:25;24.42;;;13.20;;
38851;SDS011;24605;50.092;9.182;2022-12-20T11:50:12;27.00;;;14.15;;
38851;SDS011;24605;50.092;9.182;2022-12-20T11:52:52;24.67;;;13.63;;
38851;SDS011;24605;50.092;9.182;2022-12-20T11:55:24;22.90;;;13.35;;
38851;SDS011;24605;50.092;9.182;2022-12-20T11:57:55;23.42;;;13.23;;
38851;SDS011;24605;50.092;9.182;2022-12-20T12:00:26;19.20;;;11.13;;
38851;SDS011;24605;50.092;9.182;2022-12-20T12:02:53;19.60;;;10.95;;
38851;SDS011;24605;50.092;9.182;2022-12-20T12:05:27;18.10;;;10.45;;
38851;SDS011;24605;50.092;9.182;2022-12-20T12:07:58;19.67;;;10.55;;
38851;SDS011;24605;50.092;9.182;2022-12-20T12:10:30;29.98;;;12.15;;
38851;SDS011;24605;50.092;9.182;2022-12-20T12:13:02;21.05;;;12.98;;
38851;SDS011;24605;50.092;9.182;2022-12-20T12:15:38;22.42;;;13.80;;
38851;SDS011;24605;50.092;9.182;2022-12-20T12:18:15;21.55;;;12.23;;
38851;SDS011;24605;50.092;9.182;2022-12-20T12:20:49;21.77;;;13.52;;
38851;SDS011;24605;50.092;9.182;2022-12-20T12:23:21;19.73;;;12.05;;
38851;SDS011;24605;50.092;9.182;2022-12-20T12:25:52;21.77;;;12.48;;
38851;SDS011;24605;50.092;9.182;2022-12-20T12:28:19;22.48;;;12.30;;
38851;SDS011;24605;50.092;9.182;2022-12-20T12:30:49;22.08;;;12.52;;
38851;SDS011;24605;50.092;9.182;2022-12-20T12:33:20;19.10;;;9.90;;
38851;SDS011;24605;50.092;9.182;2022-12-20T12:35:59;22.38;;;12.40;;
38851;SDS011;24605;50.092;9.182;2022-12-20T12:38:54;22.10;;;12.15;;
38851;SDS011;24605;50.092;9.182;2022-12-20T12:41:45;20.90;;;11.98;;
38851;SDS011;24605;50.092;9.182;2022-12-20T12:44:31;19.55;;;12.55;;
38851;SDS011;24605;50.092;9.182;2022-12-20T12:47:07;22.70;;;12.13;;
38851;SDS011;24605;50.092;9.182;2022-12-20T12:49:39;22.35;;;12.18;;
38851;SDS011;24605;50.092;9.182;2022-12-20T12:52:21;21.00;;;12.00;;
38851;SDS011;24605;50.092;9.182;2022-12-20T12:54:54;26.75;;;12.88;;
38851;SDS011;24605;50.092;9.182;2022-12-20T12:57:21;26.15;;;14.27;;
38851;SDS011;24605;50.092;9.182;2022-12-20T12:59:48;19.65;;;12.23;;
38851;SDS011;24605;50.092;9.182;2022-12-20T13:02:26;21.33;;;13.30;;
38851;SDS011;24605;50.092;9.182;2022-12-20T13:05:03;22.87;;;12.47;;
38851;SDS011;24605;50.092;9.182;2022-12-20T13:07:58;21.23;;;12.02;;
38851;SDS011;24605;50.092;9.182;2022-12-20T13:13:31;18.02;;;10.25;;
38851;SDS011;24605;50.092;9.182;2022-12-20T13:16:05;21.63;;;11.98;;
38851;SDS011;24605;50.092;9.182;2022-12-20T13:18:36;24.52;;;13.85;;
38851;SDS011;24605;50.092;9.182;2022-12-20T13:21:27;27.38;;;16.02;;
38851;SDS011;24605;50.092;9.182;2022-12-20T13:36:28;35.78;;;17.55;;
38851;SDS011;24605;50.092;9.182;2022-12-20T13:39:00;22.58;;;10.60;;
38851;SDS011;24605;50.092;9.182;2022-12-20T13:41:34;19.67;;;11.05;;
38851;SDS011;24605;50.092;9.182;2022-12-20T13:44:25;24.67;;;12.88;;
38851;SDS011;24605;50.092;9.182;2022-12-20T13:47:06;24.23;;;13.65;;
38851;SDS011;24605;50.092;9.182;2022-12-20T13:49:42;21.25;;;12.05;;
38851;SDS011;24605;50.092;9.182;2022-12-20T13:52:18;25.98;;;14.43;;
38851;SDS011;24605;50.092;9.182;2022-12-20T13:54:50;20.95;;;12.73;;
38851;SDS011;24605;50.092;9.182;2022-12-20T13:57:20;22.25;;;12.10;;
38851;SDS011;24605;50.092;9.182;2022-12-20T13:59:54;21.85;;;11.68;;
38851;SDS011;24605;50.092;9.182;2022-12-20T14:02:23;22.85;;;11.65;;
38851;SDS011;24605;50.092;9.182;2022-12-20T14:04:57;21.30;;;11.75;;
38851;SDS011;24605;50.092;9.182;2022-12-20T14:07:27;22.45;;;11.80;;
38851;SDS011;24605;50.092;9.182;2022-12-20T14:09:57;21.60;;;11.23;;
38851;SDS011;24605;50.092;9.182;2022-12-20T14:12:25;20.48;;;11.13;;
38851;SDS011;24605;50.092;9.182;2022-12-20T14:14:54;21.48;;;13.73;;
38851;SDS011;24605;50.092;9.182;2022-12-20T14:17:22;21.83;;;13.13;;
38851;SDS011;24605;50.092;9.182;2022-12-20T14:20:03;21.17;;;12.65;;
38851;SDS011;24605;50.092;9.182;2022-12-20T14:22:31;25.23;;;13.73;;
38851;SDS011;24605;50.092;9.182;2022-12-20T14:24:59;26.27;;;15.38;;
38851;SDS011;24605;50.092;9.182;2022-12-20T14:27:27;22.80;;;13.32;;
38851;SDS011;24605;50.092;9.182;2022-12-20T14:29:59;19.55;;;11.20;;
38851;SDS011;24605;50.092;9.182;2022-12-20T14:32:26;23.15;;;12.20;;
38851;SDS011;24605;50.092;9.182;2022-12-20T14:34:53;20.50;;;11.50;;
38851;SDS011;24605;50.092;9.182;2022-12-20T14:37:25;21.55;;;12.40;;
38851;SDS011;24605;50.092;9.182;2022-12-20T14:39:55;20.55;;;11.30;;
38851;SDS011;24605;50.092;9.182;2022-12-20T14:42:26;18.23;;;10.75;;
38851;SDS011;24605;50.092;9.182;2022-12-20T14:45:05;21.30;;;12.02;;
38851;SDS011;24605;50.092;9.182;2022-12-20T14:47:46;18.88;;;11.50;;
38851;SDS011;24605;50.092;9.182;2022-12-20T14:50:16;20.33;;;11.73;;
38851;SDS011;24605;50.092;9.182;2022-12-20T14:52:44;21.17;;;11.75;;
38851;SDS011;24605;50.092;9.182;2022-12-20T14:55:13;20.02;;;11.95;;